createdAt,value
2023-02-14T00:01:13.408Z,17.33
2023-02-14T00:03:41.992Z,18.23
2023-02-14T00:06:15.500Z,16.48
2023-02-14T00:08:45.110Z,13.82
2023-02-14T00:11:14.844Z,17.40
2023-02-14T00:14:03.561Z,15.02
2023-02-14T00:16:33.063Z,16.60
2023-02-14T00:19:04.566Z,17.05
2023-02-14T00:21:38.351Z,17.40
2023-02-14T00:24:15.806Z,16.83
2023-02-14T00:26:44.751Z,16.48
2023-02-14T00:29:20.214Z,11.57
2023-02-14T00:31:48.776Z,18.83
2023-02-14T00:34:19.077Z,11.88
2023-02-14T00:36:48.949Z,16.60
2023-02-14T00:39:19.230Z,16.95
2023-02-14T00:41:48.172Z,16.67
2023-02-14T00:44:18.524Z,16.90
2023-02-14T00:46:47.117Z,10.57
2023-02-14T00:49:15.626Z,15.32
2023-02-14T00:51:44.462Z,13.50
2023-02-14T00:54:12.923Z,16.17
2023-02-14T00:56:42.018Z,14.88
2023-02-14T00:59:11.245Z,14.35
2023-02-14T01:01:40.611Z,12.05
2023-02-14T01:04:09.199Z,14.73
2023-02-14T01:06:37.844Z,16.70
2023-02-14T01:09:06.246Z,15.43
2023-02-14T01:11:35.079Z,17.42
2023-02-14T01:14:03.647Z,19.10
2023-02-14T01:16:32.691Z,12.73
2023-02-14T01:19:01.637Z,15.20
2023-02-14T01:21:34.237Z,14.73
2023-02-14T01:24:05.806Z,17.13
2023-02-14T01:29:05.575Z,18.67
2023-02-14T01:31:36.003Z,12.83
2023-02-14T01:34:04.944Z,14.98
2023-02-14T01:36:37.800Z,18.02
2023-02-14T01:39:11.454Z,14.57
2023-02-14T01:41:43.820Z,15.35
2023-02-14T01:44:15.394Z,18.15
2023-02-14T01:46:45.915Z,16.38
2023-02-14T01:49:27.990Z,17.48
2023-02-14T01:52:10.976Z,20.00
2023-02-14T01:54:46.617Z,19.23
2023-02-14T01:57:19.448Z,17.42
2023-02-14T01:59:53.241Z,17.80
2023-02-14T02:02:24.156Z,13.95
2023-02-14T02:04:56.215Z,16.70
2023-02-14T02:07:29.835Z,17.60
2023-02-14T02:10:03.269Z,18.67
2023-02-14T02:12:35.839Z,19.63
2023-02-14T02:15:05.517Z,17.08
2023-02-14T02:17:59.223Z,18.70
2023-02-14T02:20:50.311Z,20.85
2023-02-14T02:23:38.078Z,21.00
2023-02-14T02:26:15.375Z,21.23
2023-02-14T02:29:21.680Z,16.45
2023-02-14T02:32:13.399Z,11.93
2023-02-14T02:35:21.090Z,19.92
2023-02-14T02:37:58.508Z,16.98
2023-02-14T02:40:36.753Z,22.17
2023-02-14T02:43:40.232Z,17.35
2023-02-14T02:46:34.867Z,15.73
2023-02-14T02:50:10.624Z,13.63
2023-02-14T02:53:04.434Z,18.95
2023-02-14T02:56:07.198Z,14.90
2023-02-14T02:58:47.402Z,14.77
2023-02-14T03:01:21.198Z,20.20
2023-02-14T03:04:17.078Z,16.85
2023-02-14T03:06:48.611Z,17.05
2023-02-14T03:09:20.524Z,19.83
2023-02-14T03:12:23.671Z,17.95
2023-02-14T03:15:07.172Z,18.40
2023-02-14T03:18:28.080Z,13.02
2023-02-14T03:21:13.603Z,18.00
2023-02-14T03:23:48.024Z,17.27
2023-02-14T03:26:42.978Z,15.05
2023-02-14T03:29:47.895Z,16.67
2023-02-14T03:32:41.168Z,16.25
2023-02-14T03:35:21.176Z,19.52
2023-02-14T03:38:02.270Z,16.52
2023-02-14T03:40:49.661Z,16.23
2023-02-14T03:43:27.164Z,17.42
2023-02-14T03:46:04.935Z,16.08
2023-02-14T03:48:36.120Z,14.23
2023-02-14T03:51:07.148Z,13.25
2023-02-14T03:53:41.687Z,18.15
2023-02-14T03:56:22.192Z,18.48
2023-02-14T03:58:56.472Z,20.27
2023-02-14T04:01:32.587Z,14.38
2023-02-14T04:04:04.361Z,12.95
2023-02-14T04:06:33.061Z,16.98
2023-02-14T04:09:01.769Z,18.88
2023-02-14T04:11:35.285Z,17.20
2023-02-14T04:14:04.283Z,18.90
2023-02-14T04:16:52.618Z,14.95
2023-02-14T04:19:24.320Z,21.55
2023-02-14T04:21:53.307Z,22.53
2023-02-14T04:24:22.027Z,21.25
2023-02-14T04:27:10.566Z,18.35
2023-02-14T04:29:44.562Z,16.40
2023-02-14T04:32:16.654Z,17.70
2023-02-14T04:34:46.100Z,18.10
2023-02-14T04:37:16.481Z,18.60
2023-02-14T04:39:45.505Z,18.05
2023-02-14T04:42:14.771Z,18.38
2023-02-14T04:44:43.346Z,18.95
2023-02-14T04:47:12.036Z,17.40
2023-02-14T04:49:40.655Z,16.77
2023-02-14T04:52:08.995Z,16.05
2023-02-14T04:54:37.625Z,20.70
2023-02-14T04:57:05.965Z,18.38
2023-02-14T04:59:34.704Z,19.17
2023-02-14T05:02:03.290Z,19.80
2023-02-14T05:04:33.552Z,18.63
2023-02-14T05:07:01.943Z,22.45
2023-02-14T05:09:30.888Z,19.30
2023-02-14T05:11:59.403Z,20.52
2023-02-14T05:14:28.100Z,23.63
2023-02-14T05:16:56.684Z,17.55
2023-02-14T05:19:25.377Z,22.40
2023-02-14T05:21:53.671Z,19.92
2023-02-14T05:24:22.771Z,18.35
2023-02-14T05:26:51.039Z,17.88
2023-02-14T05:29:19.714Z,19.90
2023-02-14T05:31:48.291Z,22.10
2023-02-14T05:34:17.233Z,21.95
2023-02-14T05:36:45.527Z,23.05
2023-02-14T05:39:14.760Z,16.95
2023-02-14T05:41:43.133Z,18.80
2023-02-14T05:44:11.826Z,24.90
2023-02-14T05:46:40.084Z,19.98
2023-02-14T05:49:08.694Z,20.60
2023-02-14T05:51:38.471Z,26.30
2023-02-14T05:54:08.835Z,21.88
2023-02-14T05:56:38.945Z,24.77
2023-02-14T05:59:07.621Z,21.10
2023-02-14T06:01:36.164Z,20.15
2023-02-14T06:04:05.032Z,21.08
2023-02-14T06:06:35.639Z,20.77
2023-02-14T06:09:05.573Z,26.15
2023-02-14T06:11:34.414Z,20.70
2023-02-14T06:14:04.428Z,24.23
2023-02-14T06:16:33.039Z,22.35
2023-02-14T06:19:02.338Z,28.92
2023-02-14T06:21:33.874Z,26.20
2023-02-14T06:24:02.774Z,20.60
2023-02-14T06:26:31.332Z,20.73
2023-02-14T06:29:00.086Z,23.17
2023-02-14T06:35:00.549Z,22.80
2023-02-14T06:37:29.715Z,18.35
2023-02-14T06:39:58.344Z,23.23
2023-02-14T06:42:27.118Z,24.75
2023-02-14T06:44:55.464Z,22.17
2023-02-14T06:47:24.510Z,19.52
2023-02-14T06:49:54.209Z,19.75
2023-02-14T06:52:23.002Z,23.02
2023-02-14T06:54:51.343Z,18.58
2023-02-14T06:57:21.183Z,19.95
2023-02-14T06:59:49.602Z,20.38
2023-02-14T07:02:18.228Z,18.23
2023-02-14T07:04:46.950Z,17.15
2023-02-14T07:07:15.673Z,24.38
2023-02-14T07:09:44.289Z,19.60
2023-02-14T07:12:12.936Z,18.13
2023-02-14T07:14:41.502Z,18.05
2023-02-14T07:17:10.591Z,16.85
2023-02-14T07:19:39.228Z,21.00
2023-02-14T07:22:07.971Z,24.20
2023-02-14T07:24:36.395Z,23.70
2023-02-14T07:27:05.269Z,17.58
2023-02-14T07:29:33.768Z,24.30
2023-02-14T07:32:02.458Z,16.20
2023-02-14T07:34:31.029Z,17.08
2023-02-14T07:36:59.801Z,17.08
2023-02-14T07:39:28.836Z,9.77
2023-02-14T07:41:57.646Z,18.42
2023-02-14T07:44:28.102Z,16.08
2023-02-14T07:46:56.912Z,21.17
2023-02-14T07:49:25.293Z,19.85
2023-02-14T07:51:53.989Z,16.55
2023-02-14T07:54:22.819Z,17.63
2023-02-14T07:56:51.800Z,16.58
2023-02-14T07:59:20.140Z,16.30
2023-02-14T08:01:48.776Z,13.88
2023-02-14T08:04:17.221Z,15.82
2023-02-14T08:06:46.480Z,16.98
2023-02-14T08:09:24.959Z,11.90
2023-02-14T08:12:16.983Z,17.48
2023-02-14T08:14:45.504Z,16.30
2023-02-14T08:17:14.365Z,14.88
2023-02-14T08:19:42.911Z,16.52
2023-02-14T08:22:11.667Z,16.90
2023-02-14T08:24:40.153Z,15.45
2023-02-14T08:27:09.077Z,14.23
2023-02-14T08:29:37.479Z,14.80
2023-02-14T08:32:06.384Z,15.25
2023-02-14T08:34:34.851Z,16.90
2023-02-14T08:37:03.540Z,15.95
2023-02-14T08:39:33.375Z,16.73
2023-02-14T08:42:02.153Z,15.43
2023-02-14T08:44:30.723Z,13.10
2023-02-14T08:46:59.829Z,13.27
2023-02-14T08:49:28.467Z,13.45
2023-02-14T08:51:57.511Z,13.38
2023-02-14T08:54:26.014Z,14.65
2023-02-14T08:57:16.027Z,15.88
2023-02-14T08:59:45.251Z,15.63
2023-02-14T09:02:14.548Z,16.95
2023-02-14T09:04:43.057Z,18.75
2023-02-14T09:07:12.821Z,15.65
2023-02-14T09:09:41.257Z,12.93
2023-02-14T09:12:10.947Z,13.65
2023-02-14T09:14:41.838Z,15.75
2023-02-14T09:17:13.098Z,16.90
2023-02-14T09:19:42.524Z,15.82
2023-02-14T09:22:12.181Z,13.30
2023-02-14T09:24:41.627Z,14.98
2023-02-14T09:27:24.970Z,15.50
2023-02-14T09:29:54.341Z,14.40
2023-02-14T09:32:22.931Z,15.50
2023-02-14T09:34:52.190Z,17.85
2023-02-14T09:37:39.705Z,20.90
2023-02-14T09:40:09.572Z,30.95
2023-02-14T09:42:51.898Z,19.10
2023-02-14T09:45:29.227Z,13.25
2023-02-14T09:48:16.452Z,19.05
2023-02-14T09:50:52.029Z,16.98
2023-02-14T09:53:28.050Z,15.63
2023-02-14T09:56:37.246Z,17.20
2023-02-14T09:59:23.760Z,14.45
2023-02-14T10:02:19.343Z,16.02
2023-02-14T10:05:16.984Z,17.23
2023-02-14T10:07:48.760Z,17.42
2023-02-14T10:10:33.169Z,18.27
2023-02-14T10:13:52.260Z,13.45
2023-02-14T10:16:29.568Z,17.33
2023-02-14T10:19:26.543Z,16.08
2023-02-14T10:22:00.970Z,19.20
2023-02-14T10:24:49.481Z,18.85
2023-02-14T10:27:32.243Z,17.13
2023-02-14T10:30:03.071Z,13.88
2023-02-14T10:32:45.062Z,15.93
2023-02-14T10:38:07.619Z,20.42
2023-02-14T10:41:05.497Z,11.32
2023-02-14T10:44:28.382Z,21.13
2023-02-14T10:47:06.439Z,10.57
2023-02-14T10:50:05.662Z,15.75
2023-02-14T10:52:37.235Z,13.75
2023-02-14T10:55:57.646Z,18.30
2023-02-14T10:58:30.772Z,14.57
2023-02-14T11:01:13.297Z,15.35
2023-02-14T11:06:20.320Z,16.70
2023-02-14T11:08:49.147Z,16.92
2023-02-14T11:11:44.491Z,16.75
2023-02-14T11:14:30.244Z,13.07
2023-02-14T11:17:01.045Z,15.23
2023-02-14T11:19:38.870Z,18.23
2023-02-14T11:22:10.379Z,15.95
2023-02-14T11:27:10.202Z,15.55
2023-02-14T11:29:41.803Z,11.70
2023-02-14T11:32:15.978Z,16.52
2023-02-14T11:35:07.236Z,10.77
2023-02-14T11:37:44.426Z,14.30
2023-02-14T11:40:39.482Z,11.57
2023-02-14T11:43:14.425Z,30.50
2023-02-14T11:45:48.358Z,15.50
2023-02-14T11:48:37.749Z,15.82
2023-02-14T11:51:14.095Z,15.50
2023-02-14T11:53:56.623Z,12.68
2023-02-14T11:56:25.542Z,14.32
2023-02-14T11:59:03.633Z,16.73
2023-02-14T12:01:38.754Z,15.73
2023-02-14T12:04:23.263Z,21.35
2023-02-14T12:06:52.006Z,13.23
2023-02-14T12:09:23.462Z,29.88
2023-02-14T12:11:58.156Z,18.10
2023-02-14T12:14:32.347Z,44.95
2023-02-14T12:17:10.228Z,17.30
2023-02-14T12:19:52.160Z,20.98
2023-02-14T12:25:10.865Z,11.52
2023-02-14T12:28:09.107Z,10.25
2023-02-14T12:30:42.063Z,13.10
2023-02-14T12:33:21.978Z,13.35
2023-02-14T12:36:23.870Z,13.75
2023-02-14T12:39:04.022Z,11.90
2023-02-14T12:42:00.268Z,12.75
2023-02-14T12:44:56.986Z,12.77
2023-02-14T12:47:47.739Z,11.48
2023-02-14T12:50:41.206Z,14.60
2023-02-14T12:53:24.814Z,14.18
2023-02-14T12:56:14.849Z,11.32
2023-02-14T12:59:16.667Z,13.25
2023-02-14T13:04:17.231Z,12.07
2023-02-14T13:06:57.032Z,12.07
2023-02-14T13:09:55.395Z,11.95
2023-02-14T13:12:39.314Z,15.25
2023-02-14T13:15:16.671Z,13.88
2023-02-14T13:17:50.016Z,12.32
2023-02-14T13:20:42.909Z,13.40
2023-02-14T13:23:20.940Z,12.75
2023-02-14T13:25:56.640Z,10.65
2023-02-14T13:28:27.306Z,14.18
2023-02-14T13:30:58.072Z,12.10
2023-02-14T13:33:41.145Z,16.80
2023-02-14T13:36:12.930Z,13.98
2023-02-14T13:38:52.033Z,12.70
2023-02-14T13:41:22.498Z,13.32
2023-02-14T13:43:58.848Z,8.48
2023-02-14T13:47:31.742Z,10.57
2023-02-14T13:50:03.625Z,11.75
2023-02-14T13:52:39.149Z,12.27
2023-02-14T13:55:14.995Z,12.27
2023-02-14T13:57:43.586Z,13.40
2023-02-14T14:00:18.998Z,10.18
2023-02-14T14:02:55.782Z,14.63
2023-02-14T14:05:31.035Z,14.02
2023-02-14T14:08:21.184Z,13.57
2023-02-14T14:11:22.920Z,11.95
2023-02-14T14:14:00.737Z,11.73
2023-02-14T14:16:35.446Z,11.13
2023-02-14T14:19:17.189Z,12.63
2023-02-14T14:22:05.096Z,13.48
2023-02-14T14:24:36.000Z,10.25
2023-02-14T14:27:16.299Z,10.80
2023-02-14T14:29:48.675Z,10.55
2023-02-14T14:32:27.287Z,11.05
2023-02-14T14:34:58.275Z,10.88
2023-02-14T14:37:30.347Z,15.15
2023-02-14T14:40:01.640Z,17.27
2023-02-14T14:42:39.330Z,15.10
2023-02-14T14:45:24.770Z,15.48
2023-02-14T14:47:57.323Z,13.52
2023-02-14T14:50:30.024Z,15.88
2023-02-14T14:53:09.617Z,12.82
2023-02-14T14:55:39.729Z,13.20
2023-02-14T14:58:49.779Z,12.43
2023-02-14T15:01:38.698Z,15.45
2023-02-14T15:04:29.459Z,16.02
2023-02-14T15:07:16.810Z,12.98
2023-02-14T15:09:45.907Z,13.20
2023-02-14T15:12:38.975Z,12.32
2023-02-14T15:15:11.649Z,10.75
2023-02-14T15:17:42.386Z,10.38
2023-02-14T15:20:23.333Z,14.87
2023-02-14T15:22:53.904Z,14.52
2023-02-14T15:25:34.203Z,14.55
2023-02-14T15:28:03.505Z,15.75
2023-02-14T15:30:38.072Z,15.30
2023-02-14T15:33:14.021Z,14.45
2023-02-14T15:35:44.189Z,16.77
2023-02-14T15:38:14.031Z,14.32
2023-02-14T15:40:44.482Z,14.70
2023-02-14T15:43:29.858Z,24.88
2023-02-14T15:46:24.196Z,23.02
2023-02-14T15:48:55.638Z,18.27
2023-02-14T15:51:29.661Z,21.00
2023-02-14T15:54:31.795Z,23.35
2023-02-14T15:57:19.059Z,21.20
2023-02-14T15:59:50.224Z,32.20
2023-02-14T16:02:42.196Z,29.38
2023-02-14T16:08:24.371Z,36.85
2023-02-14T16:11:14.664Z,47.97
2023-02-14T16:13:46.964Z,47.20
2023-02-14T16:17:06.944Z,47.97
2023-02-14T16:19:39.510Z,40.30
2023-02-14T16:22:13.549Z,44.15
2023-02-14T16:24:42.196Z,46.20
2023-02-14T16:27:13.456Z,51.38
2023-02-14T16:29:43.135Z,68.05
2023-02-14T16:32:21.979Z,68.65
2023-02-14T16:34:51.563Z,55.63
2023-02-14T16:37:30.397Z,61.72
2023-02-14T16:40:01.760Z,61.78
2023-02-14T16:42:31.742Z,62.05
2023-02-14T16:45:00.380Z,52.97
2023-02-14T16:47:28.739Z,49.28
2023-02-14T16:50:16.378Z,49.40
2023-02-14T16:52:51.798Z,49.03
2023-02-14T16:55:20.716Z,50.85
2023-02-14T16:57:51.696Z,45.75
2023-02-14T17:00:20.489Z,45.22
2023-02-14T17:02:49.909Z,45.90
2023-02-14T17:05:18.450Z,48.60
2023-02-14T17:07:47.851Z,50.83
2023-02-14T17:10:19.358Z,49.55
2023-02-14T17:12:48.988Z,51.90
2023-02-14T17:15:21.729Z,70.70
2023-02-14T17:17:55.094Z,74.68
2023-02-14T17:20:24.504Z,116.72
2023-02-14T17:22:55.599Z,80.32
2023-02-14T17:25:24.487Z,104.38
2023-02-14T17:27:53.584Z,106.03
2023-02-14T17:30:22.678Z,144.27
2023-02-14T17:32:51.293Z,169.93
2023-02-14T17:35:19.705Z,174.40
2023-02-14T17:37:48.623Z,162.70
2023-02-14T17:40:18.712Z,121.85
2023-02-14T17:42:47.374Z,124.05
2023-02-14T17:45:15.810Z,127.30
2023-02-14T17:47:45.365Z,133.80
2023-02-14T17:50:14.914Z,144.32
2023-02-14T17:52:43.885Z,143.68
2023-02-14T17:55:12.711Z,133.38
2023-02-14T17:57:41.835Z,133.13
2023-02-14T18:00:11.969Z,141.00
2023-02-14T18:02:43.870Z,143.55
2023-02-14T18:05:12.762Z,138.43
2023-02-14T18:07:41.669Z,136.32
2023-02-14T18:10:10.805Z,127.43
2023-02-14T18:12:39.590Z,113.75
2023-02-14T18:15:08.356Z,117.93
2023-02-14T18:17:37.548Z,127.72
2023-02-14T18:20:10.019Z,120.90
2023-02-14T18:22:38.770Z,129.55
2023-02-14T18:25:07.671Z,137.73
2023-02-14T18:27:36.382Z,136.70
2023-02-14T18:30:05.866Z,157.13
2023-02-14T18:32:34.668Z,184.52
2023-02-14T18:35:02.925Z,164.77
2023-02-14T18:37:32.011Z,172.40
2023-02-14T18:40:00.903Z,213.13
2023-02-14T18:42:29.535Z,199.45
2023-02-14T18:44:57.895Z,189.98
2023-02-14T18:47:27.022Z,194.75
2023-02-14T18:49:56.290Z,196.52
2023-02-14T18:52:25.184Z,212.65
2023-02-14T18:54:53.617Z,209.57
2023-02-14T18:57:22.175Z,209.57
2023-02-14T18:59:50.470Z,194.15
2023-02-14T19:02:44.695Z,210.48
2023-02-14T19:05:14.011Z,196.57
2023-02-14T19:07:42.861Z,192.43
2023-02-14T19:10:38.117Z,194.02
2023-02-14T19:13:06.899Z,172.02
2023-02-14T19:15:35.284Z,176.77
2023-02-14T19:18:14.970Z,163.27
2023-02-14T19:20:43.329Z,146.55
2023-02-14T19:23:12.113Z,134.02
2023-02-14T19:25:40.587Z,126.55
2023-02-14T19:28:12.807Z,130.75
2023-02-14T19:33:09.797Z,114.82
2023-02-14T19:35:38.081Z,112.78
2023-02-14T19:38:07.220Z,110.22
2023-02-14T19:40:35.731Z,97.50
2023-02-14T19:43:04.228Z,95.75
2023-02-14T19:45:32.781Z,95.50
2023-02-14T19:48:03.685Z,97.10
2023-02-14T19:50:32.028Z,100.25
2023-02-14T19:53:00.860Z,192.40
2023-02-14T19:55:29.300Z,234.32
2023-02-14T19:57:58.095Z,218.65
2023-02-14T20:00:26.926Z,240.35
2023-02-14T20:02:55.780Z,279.30
2023-02-14T20:05:25.185Z,266.45
2023-02-14T20:15:28.199Z,235.35
2023-02-14T20:17:57.244Z,215.43
2023-02-14T20:20:25.661Z,231.70
2023-02-14T20:22:54.277Z,216.43
2023-02-14T20:25:22.819Z,125.07
2023-02-14T20:27:53.693Z,95.60
2023-02-14T20:30:23.435Z,86.07
2023-02-14T20:32:52.295Z,78.97
2023-02-14T20:35:20.900Z,67.22
2023-02-14T20:37:49.707Z,54.38
2023-02-14T20:40:19.625Z,39.85
2023-02-14T20:42:49.285Z,29.10
2023-02-14T20:45:17.778Z,35.50
2023-02-14T20:47:49.179Z,59.08
2023-02-14T20:50:17.695Z,47.63
2023-02-14T20:52:46.414Z,43.15
2023-02-14T20:55:14.932Z,55.55
2023-02-14T20:57:43.847Z,57.75
2023-02-14T21:00:12.651Z,58.35
2023-02-14T21:02:41.819Z,74.60
2023-02-14T21:05:10.481Z,121.22
2023-02-14T21:07:39.257Z,179.95
2023-02-14T21:10:07.662Z,151.57
2023-02-14T21:12:36.350Z,201.57
2023-02-14T21:15:07.060Z,248.35
2023-02-14T21:17:36.154Z,183.30
2023-02-14T21:20:05.935Z,251.55
2023-02-14T21:22:34.467Z,222.77
2023-02-14T21:25:02.971Z,236.27
2023-02-14T21:27:31.950Z,265.58
2023-02-14T21:30:00.282Z,263.00
2023-02-14T21:32:29.237Z,262.08
2023-02-14T21:34:57.632Z,248.20
2023-02-14T21:37:26.181Z,191.50
2023-02-14T21:39:54.422Z,194.98
2023-02-14T21:42:23.146Z,193.30
2023-02-14T21:45:09.882Z,175.80
2023-02-14T21:47:39.927Z,211.35
2023-02-14T21:50:27.185Z,142.98
2023-02-14T21:52:55.759Z,162.38
2023-02-14T21:55:24.347Z,208.55
2023-02-14T21:57:52.984Z,201.93
2023-02-14T22:00:22.729Z,159.90
2023-02-14T22:02:51.531Z,132.35
2023-02-14T22:05:20.224Z,166.50
2023-02-14T22:07:48.779Z,130.85
2023-02-14T22:10:17.322Z,125.13
2023-02-14T22:12:46.282Z,111.05
2023-02-14T22:15:14.546Z,114.85
2023-02-14T22:17:43.312Z,173.00
2023-02-14T22:20:11.845Z,172.75
2023-02-14T22:22:40.615Z,155.18
2023-02-14T22:25:09.053Z,218.48
2023-02-14T22:27:40.124Z,142.15
2023-02-14T22:30:08.817Z,151.15
2023-02-14T22:32:37.522Z,166.85
2023-02-14T22:35:06.143Z,156.90
2023-02-14T22:37:34.962Z,221.32
2023-02-14T22:40:04.236Z,339.80
2023-02-14T22:42:32.898Z,236.77
2023-02-14T22:45:01.273Z,268.75
2023-02-14T22:47:32.078Z,198.55
2023-02-14T22:50:01.384Z,176.95
2023-02-14T22:52:30.184Z,148.05
2023-02-14T22:54:58.499Z,150.13
2023-02-14T22:57:27.188Z,133.23
2023-02-14T22:59:55.568Z,168.90
2023-02-14T23:02:24.583Z,116.07
2023-02-14T23:04:53.198Z,123.13
2023-02-14T23:07:22.198Z,148.20
2023-02-14T23:09:50.739Z,183.10
2023-02-14T23:12:37.856Z,233.60
2023-02-14T23:15:25.125Z,187.63
2023-02-14T23:18:12.177Z,152.65
2023-02-14T23:20:58.919Z,203.20
2023-02-14T23:23:31.671Z,290.98
2023-02-14T23:26:00.902Z,316.63
2023-02-14T23:28:30.041Z,182.30
2023-02-14T23:31:02.341Z,163.57
2023-02-14T23:33:30.951Z,263.48
2023-02-14T23:36:03.284Z,191.65
2023-02-14T23:38:32.455Z,245.98
2023-02-14T23:41:30.016Z,193.40
2023-02-14T23:43:59.491Z,303.15
2023-02-14T23:46:27.880Z,195.07
2023-02-14T23:48:56.849Z,170.80
2023-02-14T23:51:25.174Z,133.55
2023-02-14T23:53:55.124Z,152.82
2023-02-14T23:56:23.361Z,148.18
2023-02-14T23:58:52.226Z,162.43
